sensor_id;sensor_type;location;lat;lon;timestamp;pressure;altitude;pressure_sealevel;temperature;humidity
52927;BME280;40783;49.710;8.842;2023-11-21T00:01:17;98377.09;;;9.10;100.00
52927;BME280;40783;49.710;8.842;2023-11-21T00:03:42;98375.41;;;9.09;100.00
52927;BME280;40783;49.710;8.842;2023-11-21T00:06:07;98373.94;;;8.98;100.00
52927;BME280;40783;49.710;8.842;2023-11-21T00:08:33;98375.91;;;9.04;100.00
52927;BME280;40783;49.710;8.842;2023-11-21T00:10:59;98383.91;;;9.04;100.00
52927;BME280;40783;49.710;8.842;2023-11-21T00:13:25;98388.91;;;9.08;100.00
52927;BME280;40783;49.710;8.842;2023-11-21T00:15:50;98380.22;;;9.05;100.00
52927;BME280;40783;49.710;8.842;2023-11-21T00:18:15;98388.09;;;9.07;100.00
52927;BME280;40783;49.710;8.842;2023-11-21T00:20:43;98381.91;;;9.06;100.00
52927;BME280;40783;49.710;8.842;2023-11-21T00:23:10;98385.22;;;9.09;100.00
52927;BME280;40783;49.710;8.842;2023-11-21T00:25:36;98380.94;;;8.99;100.00
52927;BME280;40783;49.710;8.842;2023-11-21T00:28:01;98382.59;;;9.00;100.00
52927;BME280;40783;49.710;8.842;2023-11-21T00:30:28;98380.94;;;8.99;100.00
52927;BME280;40783;49.710;8.842;2023-11-21T00:32:54;98375.59;;;8.99;100.00
52927;BME280;40783;49.710;8.842;2023-11-21T00:35:19;98380.56;;;9.02;100.00
52927;BME280;40783;49.710;8.842;2023-11-21T00:37:45;98382.59;;;9.00;100.00
52927;BME280;40783;49.710;8.842;2023-11-21T00:40:14;98374.41;;;9.02;100.00
52927;BME280;40783;49.710;8.842;2023-11-21T00:42:42;98382.09;;;8.97;100.00
52927;BME280;40783;49.710;8.842;2023-11-21T00:45:09;98381.59;;;8.93;100.00
52927;BME280;40783;49.710;8.842;2023-11-21T00:47:36;98377.59;;;8.97;100.00
52927;BME280;40783;49.710;8.842;2023-11-21T00:50:06;98376.22;;;9.01;100.00
52927;BME280;40783;49.710;8.842;2023-11-21T00:52:32;98378.56;;;9.04;100.00
52927;BME280;40783;49.710;8.842;2023-11-21T00:54:59;98377.91;;;9.02;100.00
52927;BME280;40783;49.710;8.842;2023-11-21T00:57:25;98375.91;;;9.04;100.00
52927;BME280;40783;49.710;8.842;2023-11-21T00:59:52;98374.91;;;9.05;100.00
52927;BME280;40783;49.710;8.842;2023-11-21T01:02:18;98372.91;;;9.08;100.00
52927;BME280;40783;49.710;8.842;2023-11-21T01:04:43;98378.22;;;9.08;100.00
52927;BME280;40783;49.710;8.842;2023-11-21T01:07:11;98373.22;;;9.04;100.00
52927;BME280;40783;49.710;8.842;2023-11-21T01:09:36;98376.41;;;9.08;100.00
52927;BME280;40783;49.710;8.842;2023-11-21T01:12:06;98378.56;;;9.04;100.00
52927;BME280;40783;49.710;8.842;2023-11-21T01:14:31;98384.41;;;9.08;100.00
52927;BME280;40783;49.710;8.842;2023-11-21T01:16:59;98380.91;;;9.08;100.00
52927;BME280;40783;49.710;8.842;2023-11-21T01:19:25;98385.22;;;9.09;100.00
52927;BME280;40783;49.710;8.842;2023-11-21T01:21:50;98389.91;;;9.06;100.00
52927;BME280;40783;49.710;8.842;2023-11-21T01:24:17;98383.91;;;9.04;100.00
52927;BME280;40783;49.710;8.842;2023-11-21T01:26:43;98387.91;;;9.09;100.00
52927;BME280;40783;49.710;8.842;2023-11-21T01:29:10;98388.41;;;9.04;100.00
52927;BME280;40783;49.710;8.842;2023-11-21T01:31:37;98390.75;;;8.99;100.00
52927;BME280;40783;49.710;8.842;2023-11-21T01:34:03;98382.59;;;8.92;100.00
52927;BME280;40783;49.710;8.842;2023-11-21T01:36:31;98386.59;;;8.96;100.00
52927;BME280;40783;49.710;8.842;2023-11-21T01:39:00;98386.25;;;8.99;100.00
52927;BME280;40783;49.710;8.842;2023-11-21T01:41:26;98378.91;;;9.01;100.00
52927;BME280;40783;49.710;8.842;2023-11-21T01:43:52;98389.56;;;9.01;100.00
52927;BME280;40783;49.710;8.842;2023-11-21T01:46:19;98385.56;;;9.05;100.00
52927;BME280;40783;49.710;8.842;2023-11-21T01:48:48;98387.56;;;9.03;100.00
52927;BME280;40783;49.710;8.842;2023-11-21T01:51:13;98383.56;;;9.08;100.00
52927;BME280;40783;49.710;8.842;2023-11-21T01:53:39;98385.09;;;9.02;100.00
52927;BME280;40783;49.710;8.842;2023-11-21T01:56:07;98394.41;;;8.98;100.00
52927;BME280;40783;49.710;8.842;2023-11-21T01:58:36;98386.59;;;8.96;100.00
52927;BME280;40783;49.710;8.842;2023-11-21T02:01:03;98387.75;;;8.94;100.00
52927;BME280;40783;49.710;8.842;2023-11-21T02:03:28;98395.59;;;8.95;100.00
52927;BME280;40783;49.710;8.842;2023-11-21T02:05:54;98398.94;;;8.97;100.00
52927;BME280;40783;49.710;8.842;2023-11-21T02:08:21;98388.59;;;8.94;100.00
52927;BME280;40783;49.710;8.842;2023-11-21T02:10:49;98385.09;;;9.02;100.00
52927;BME280;40783;49.710;8.842;2023-11-21T02:13:16;98392.91;;;9.03;100.00
52927;BME280;40783;49.710;8.842;2023-11-21T02:15:44;98385.75;;;9.04;100.00
52927;BME280;40783;49.710;8.842;2023-11-21T02:18:09;98393.75;;;9.04;100.00
52927;BME280;40783;49.710;8.842;2023-11-21T02:20:37;98392.91;;;9.03;100.00
52927;BME280;40783;49.710;8.842;2023-11-21T02:23:03;98394.56;;;9.04;100.00
52927;BME280;40783;49.710;8.842;2023-11-21T02:25:30;98396.56;;;9.02;100.00
52927;BME280;40783;49.710;8.842;2023-11-21T02:28:00;98403.56;;;9.03;100.00
52927;BME280;40783;49.710;8.842;2023-11-21T02:30:27;98398.25;;;9.03;100.00
52927;BME280;40783;49.710;8.842;2023-11-21T02:32:56;98390.09;;;9.05;100.00
52927;BME280;40783;49.710;8.842;2023-11-21T02:35:22;98391.91;;;9.04;100.00
52927;BME280;40783;49.710;8.842;2023-11-21T02:37:47;98397.91;;;9.06;100.00
52927;BME280;40783;49.710;8.842;2023-11-21T02:40:15;98394.56;;;9.04;100.00
52927;BME280;40783;49.710;8.842;2023-11-21T02:42:45;98390.09;;;9.05;100.00
52927;BME280;40783;49.710;8.842;2023-11-21T02:45:10;98397.91;;;9.06;100.00
52927;BME280;40783;49.710;8.842;2023-11-21T02:47:37;98393.25;;;9.00;100.00
52927;BME280;40783;49.710;8.842;2023-11-21T02:50:06;98385.09;;;9.02;100.00
52927;BME280;40783;49.710;8.842;2023-11-21T02:52:33;98395.75;;;9.02;100.00
52927;BME280;40783;49.710;8.842;2023-11-21T02:54:58;98392.91;;;9.03;100.00
52927;BME280;40783;49.710;8.842;2023-11-21T02:57:26;98386.59;;;8.96;100.00
52927;BME280;40783;49.710;8.842;2023-11-21T02:59:51;98387.94;;;9.00;100.00
52927;BME280;40783;49.710;8.842;2023-11-21T03:02:19;98387.75;;;9.02;100.00
52927;BME280;40783;49.710;8.842;2023-11-21T03:04:47;98382.22;;;9.03;100.00
52927;BME280;40783;49.710;8.842;2023-11-21T03:07:15;98382.22;;;9.03;100.00
52927;BME280;40783;49.710;8.842;2023-11-21T03:09:40;98383.22;;;9.02;100.00
52927;BME280;40783;49.710;8.842;2023-11-21T03:12:08;98383.91;;;9.04;100.00
52927;BME280;40783;49.710;8.842;2023-11-21T03:14:37;98388.75;;;9.01;100.00
52927;BME280;40783;49.710;8.842;2023-11-21T03:17:02;98393.41;;;9.07;100.00
52927;BME280;40783;49.710;8.842;2023-11-21T03:19:29;98394.25;;;9.08;100.00
52927;BME280;40783;49.710;8.842;2023-11-21T03:21:55;98392.25;;;9.10;100.00
52927;BME280;40783;49.710;8.842;2023-11-21T03:24:20;98402.09;;;9.09;100.00
52927;BME280;40783;49.710;8.842;2023-11-21T03:26:45;98392.56;;;9.06;100.00
52927;BME280;40783;49.710;8.842;2023-11-21T03:29:11;98399.25;;;9.11;100.00
52927;BME280;40783;49.710;8.842;2023-11-21T03:31:36;98393.91;;;9.11;100.00
52927;BME280;40783;49.710;8.842;2023-11-21T03:34:02;98399.25;;;9.11;100.00
52927;BME280;40783;49.710;8.842;2023-11-21T03:36:27;98398.56;;;9.09;100.00
52927;BME280;40783;49.710;8.842;2023-11-21T03:38:54;98401.25;;;9.09;100.00
52927;BME280;40783;49.710;8.842;2023-11-21T03:41:20;98396.25;;;9.05;100.00
52927;BME280;40783;49.710;8.842;2023-11-21T03:43:48;98397.94;;;8.90;100.00
52927;BME280;40783;49.710;8.842;2023-11-21T03:46:13;98401.94;;;8.94;100.00
52927;BME280;40783;49.710;8.842;2023-11-21T03:48:40;98398.41;;;8.94;100.00
52927;BME280;40783;49.710;8.842;2023-11-21T03:51:07;98404.59;;;8.94;100.00
52927;BME280;40783;49.710;8.842;2023-11-21T03:53:32;98398.94;;;8.97;100.00
52927;BME280;40783;49.710;8.842;2023-11-21T03:56:01;98413.59;;;8.93;100.00
52927;BME280;40783;49.710;8.842;2023-11-21T03:58:29;98411.59;;;8.95;100.00
52927;BME280;40783;49.710;8.842;2023-11-21T04:00:54;98409.59;;;8.97;100.00
52927;BME280;40783;49.710;8.842;2023-11-21T04:03:24;98403.94;;;9.00;100.00
52927;BME280;40783;49.710;8.842;2023-11-21T04:05:49;98406.91;;;9.05;100.00
52927;BME280;40783;49.710;8.842;2023-11-21T04:08:19;98406.91;;;9.05;100.00
52927;BME280;40783;49.710;8.842;2023-11-21T04:10:44;98406.91;;;9.05;100.00
52927;BME280;40783;49.710;8.842;2023-11-21T04:13:09;98411.25;;;9.06;100.00
52927;BME280;40783;49.710;8.842;2023-11-21T04:15:35;98417.56;;;9.05;100.00
52927;BME280;40783;49.710;8.842;2023-11-21T04:18:00;98424.91;;;9.03;100.00
52927;BME280;40783;49.710;8.842;2023-11-21T04:20:25;98423.91;;;9.04;100.00
52927;BME280;40783;49.710;8.842;2023-11-21T04:22:51;98419.56;;;9.03;100.00
52927;BME280;40783;49.710;8.842;2023-11-21T04:25:16;98428.25;;;9.05;100.00
52927;BME280;40783;49.710;8.842;2023-11-21T04:27:43;98426.91;;;9.10;100.00
52927;BME280;40783;49.710;8.842;2023-11-21T04:30:09;98433.56;;;9.05;100.00
52927;BME280;40783;49.710;8.842;2023-11-21T04:32:35;98438.25;;;9.03;100.00
52927;BME280;40783;49.710;8.842;2023-11-21T04:35:00;98431.91;;;9.04;100.00
52927;BME280;40783;49.710;8.842;2023-11-21T04:37:25;98437.91;;;9.06;100.00
52927;BME280;40783;49.710;8.842;2023-11-21T04:39:50;98434.09;;;9.09;100.00
52927;BME280;40783;49.710;8.842;2023-11-21T04:42:16;98445.25;;;9.13;100.00
52927;BME280;40783;49.710;8.842;2023-11-21T04:44:42;98441.91;;;9.11;100.00
52927;BME280;40783;49.710;8.842;2023-11-21T04:47:08;98446.91;;;9.14;100.00
52927;BME280;40783;49.710;8.842;2023-11-21T04:49:34;98441.59;;;9.14;100.00
52927;BME280;40783;49.710;8.842;2023-11-21T04:52:01;98446.91;;;9.14;100.00
52927;BME280;40783;49.710;8.842;2023-11-21T04:54:30;98444.59;;;9.11;100.00
52927;BME280;40783;49.710;8.842;2023-11-21T04:56:56;98446.25;;;9.12;100.00
52927;BME280;40783;49.710;8.842;2023-11-21T04:59:21;98452.59;;;9.11;100.00
52927;BME280;40783;49.710;8.842;2023-11-21T05:01:49;98454.25;;;9.12;100.00
52927;BME280;40783;49.710;8.842;2023-11-21T05:04:14;98451.75;;;9.10;100.00
52927;BME280;40783;49.710;8.842;2023-11-21T05:06:40;98452.59;;;9.11;100.00
52927;BME280;40783;49.710;8.842;2023-11-21T05:09:05;98463.25;;;9.11;100.00
52927;BME280;40783;49.710;8.842;2023-11-21T05:11:30;98456.25;;;9.10;100.00
52927;BME280;40783;49.710;8.842;2023-11-21T05:13:55;98462.44;;;9.10;100.00
52927;BME280;40783;49.710;8.842;2023-11-21T05:16:22;98465.91;;;9.11;100.00
52927;BME280;40783;49.710;8.842;2023-11-21T05:18:47;98468.59;;;9.11;100.00
52927;BME280;40783;49.710;8.842;2023-11-21T05:21:12;98470.44;;;9.10;100.00
52927;BME280;40783;49.710;8.842;2023-11-21T05:23:40;98470.25;;;9.12;100.00
52927;BME280;40783;49.710;8.842;2023-11-21T05:26:05;98480.94;;;9.12;100.00
52927;BME280;40783;49.710;8.842;2023-11-21T05:28:31;98474.59;;;9.13;100.00
52927;BME280;40783;49.710;8.842;2023-11-21T05:30:57;98484.25;;;9.14;100.00
52927;BME280;40783;49.710;8.842;2023-11-21T05:33:22;98487.94;;;9.13;100.00
52927;BME280;40783;49.710;8.842;2023-11-21T05:35:48;98493.25;;;9.13;100.00
52927;BME280;40783;49.710;8.842;2023-11-21T05:38:13;98498.59;;;9.13;100.00
52927;BME280;40783;49.710;8.842;2023-11-21T05:40:39;98497.13;;;9.10;100.00
52927;BME280;40783;49.710;8.842;2023-11-21T05:43:04;98498.94;;;9.10;100.00
52927;BME280;40783;49.710;8.842;2023-11-21T05:45:31;98506.25;;;9.08;100.00
52927;BME280;40783;49.710;8.842;2023-11-21T05:47:57;98510.25;;;9.03;100.00
52927;BME280;40783;49.710;8.842;2023-11-21T05:50:25;98511.75;;;8.98;100.00
52927;BME280;40783;49.710;8.842;2023-11-21T05:52:50;98514.59;;;8.96;100.00
52927;BME280;40783;49.710;8.842;2023-11-21T05:55:15;98516.75;;;9.01;100.00
52927;BME280;40783;49.710;8.842;2023-11-21T05:57:41;98522.91;;;8.93;100.00
52927;BME280;40783;49.710;8.842;2023-11-21T06:00:10;98520.25;;;8.93;100.00
52927;BME280;40783;49.710;8.842;2023-11-21T06:02:40;98525.59;;;8.93;100.00
52927;BME280;40783;49.710;8.842;2023-11-21T06:05:08;98525.91;;;8.90;100.00
52927;BME280;40783;49.710;8.842;2023-11-21T06:07:36;98523.41;;;8.88;100.00
52927;BME280;40783;49.710;8.842;2023-11-21T06:10:02;98524.25;;;8.89;100.00
52927;BME280;40783;49.710;8.842;2023-11-21T06:12:30;98530.41;;;8.89;100.00
52927;BME280;40783;49.710;8.842;2023-11-21T06:14:56;98536.56;;;8.82;100.00
52927;BME280;40783;49.710;8.842;2023-11-21T06:17:21;98540.03;;;8.74;100.00
52927;BME280;40783;49.710;8.842;2023-11-21T06:19:46;98552.88;;;8.79;100.00
52927;BME280;40783;49.710;8.842;2023-11-21T06:22:12;98550.13;;;8.62;100.00
52927;BME280;40783;49.710;8.842;2023-11-21T06:24:37;98556.50;;;8.69;100.00
52927;BME280;40783;49.710;8.842;2023-11-21T06:27:06;98549.19;;;8.71;100.00
52927;BME280;40783;49.710;8.842;2023-11-21T06:29:33;98548.84;;;8.74;100.00
52927;BME280;40783;49.710;8.842;2023-11-21T06:32:02;98560.00;;;8.78;100.00
52927;BME280;40783;49.710;8.842;2023-11-21T06:34:30;98560.56;;;8.82;100.00
52927;BME280;40783;49.710;8.842;2023-11-21T06:36:57;98564.53;;;8.78;100.00
52927;BME280;40783;49.710;8.842;2023-11-21T06:39:25;98559.03;;;8.71;100.00
52927;BME280;40783;49.710;8.842;2023-11-21T06:41:50;98566.19;;;8.79;100.00
52927;BME280;40783;49.710;8.842;2023-11-21T06:44:15;98564.84;;;8.74;100.00
52927;BME280;40783;49.710;8.842;2023-11-21T06:46:40;98578.69;;;8.70;100.00
52927;BME280;40783;49.710;8.842;2023-11-21T06:49:08;98588.44;;;8.61;100.00
52927;BME280;40783;49.710;8.842;2023-11-21T06:51:33;98592.91;;;8.52;100.00
52927;BME280;40783;49.710;8.842;2023-11-21T06:53:58;98594.38;;;8.46;100.00
52927;BME280;40783;49.710;8.842;2023-11-21T06:56:24;98597.59;;;8.32;100.00
52927;BME280;40783;49.710;8.842;2023-11-21T06:58:49;98596.88;;;8.22;100.00
52927;BME280;40783;49.710;8.842;2023-11-21T07:01:14;98600.94;;;8.34;100.00
52927;BME280;40783;49.710;8.842;2023-11-21T07:03:40;98606.59;;;8.31;100.00
52927;BME280;40783;49.710;8.842;2023-11-21T07:06:08;98608.56;;;8.29;100.00
52927;BME280;40783;49.710;8.842;2023-11-21T07:08:34;98614.25;;;8.34;100.00
52927;BME280;40783;49.710;8.842;2023-11-21T07:10:59;98616.94;;;8.34;100.00
52927;BME280;40783;49.710;8.842;2023-11-21T07:13:24;98624.25;;;8.32;100.00
52927;BME280;40783;49.710;8.842;2023-11-21T07:15:49;98631.56;;;8.30;100.00
52927;BME280;40783;49.710;8.842;2023-11-21T07:18:14;98637.81;;;8.21;100.00
52927;BME280;40783;49.710;8.842;2023-11-21T07:20:39;98635.84;;;8.23;100.00
52927;BME280;40783;49.710;8.842;2023-11-21T07:23:05;98648.41;;;8.12;100.00
52927;BME280;40783;49.710;8.842;2023-11-21T07:25:31;98654.00;;;8.27;100.00
52927;BME280;40783;49.710;8.842;2023-11-21T07:27:59;98653.91;;;8.37;100.00
52927;BME280;40783;49.710;8.842;2023-11-21T07:30:24;98652.75;;;8.40;100.00
52927;BME280;40783;49.710;8.842;2023-11-21T07:32:49;98653.28;;;8.43;100.00
52927;BME280;40783;49.710;8.842;2023-11-21T07:35:15;98656.94;;;8.42;100.00
52927;BME280;40783;49.710;8.842;2023-11-21T07:37:40;98664.25;;;8.40;100.00
52927;BME280;40783;49.710;8.842;2023-11-21T07:40:08;98665.81;;;8.25;100.00
52927;BME280;40783;49.710;8.842;2023-11-21T07:42:35;98673.88;;;8.33;100.00
52927;BME280;40783;49.710;8.842;2023-11-21T07:45:01;98671.66;;;8.28;100.00
52927;BME280;40783;49.710;8.842;2023-11-21T07:47:27;98674.88;;;8.32;100.00
52927;BME280;40783;49.710;8.842;2023-11-21T07:49:53;98676.91;;;8.38;100.00
52927;BME280;40783;49.710;8.842;2023-11-21T07:52:21;98670.84;;;8.28;100.00
52927;BME280;40783;49.710;8.842;2023-11-21T07:54:46;98672.19;;;8.32;100.00
52927;BME280;40783;49.710;8.842;2023-11-21T07:57:14;98673.13;;;8.23;100.00
52927;BME280;40783;49.710;8.842;2023-11-21T07:59:41;98689.84;;;8.33;100.00
52927;BME280;40783;49.710;8.842;2023-11-21T08:02:09;98688.19;;;8.32;100.00
52927;BME280;40783;49.710;8.842;2023-11-21T08:04:39;98687.88;;;8.35;100.00
52927;BME280;40783;49.710;8.842;2023-11-21T08:07:05;98696.56;;;8.37;100.00
52927;BME280;40783;49.710;8.842;2023-11-21T08:09:30;98694.13;;;8.26;100.00
52927;BME280;40783;49.710;8.842;2023-11-21T08:11:55;98701.38;;;8.15;100.00
52927;BME280;40783;49.710;8.842;2023-11-21T08:14:21;98702.03;;;8.17;100.00
52927;BME280;40783;49.710;8.842;2023-11-21T08:16:46;98697.94;;;8.05;100.00
52927;BME280;40783;49.710;8.842;2023-11-21T08:19:14;98693.59;;;8.04;100.00
52927;BME280;40783;49.710;8.842;2023-11-21T08:21:41;98696.22;;;8.14;100.00
52927;BME280;40783;49.710;8.842;2023-11-21T08:24:09;98699.66;;;8.32;100.00
52927;BME280;40783;49.710;8.842;2023-11-21T08:26:36;98698.69;;;8.15;100.00
52927;BME280;40783;49.710;8.842;2023-11-21T08:29:01;98698.41;;;8.19;100.00
52927;BME280;40783;49.710;8.842;2023-11-21T08:31:26;98707.06;;;8.21;100.00
52927;BME280;40783;49.710;8.842;2023-11-21T08:33:51;98712.09;;;8.24;100.00
52927;BME280;40783;49.710;8.842;2023-11-21T08:36:19;98714.69;;;8.15;100.00
52927;BME280;40783;49.710;8.842;2023-11-21T08:38:46;98714.06;;;8.22;100.00
52927;BME280;40783;49.710;8.842;2023-11-21T08:41:11;98722.13;;;8.30;100.00
52927;BME280;40783;49.710;8.842;2023-11-21T08:43:36;98717.88;;;8.37;100.00
52927;BME280;40783;49.710;8.842;2023-11-21T08:46:05;98726.59;;;8.29;100.00
52927;BME280;40783;49.710;8.842;2023-11-21T08:48:30;98727.59;;;8.28;100.00
52927;BME280;40783;49.710;8.842;2023-11-21T08:50:55;98732.00;;;8.38;100.00
52927;BME280;40783;49.710;8.842;2023-11-21T08:53:21;98731.31;;;8.36;100.00
52927;BME280;40783;49.710;8.842;2023-11-21T08:55:46;98738.88;;;8.40;100.00
52927;BME280;40783;49.710;8.842;2023-11-21T08:58:11;98736.88;;;8.42;100.00
52927;BME280;40783;49.710;8.842;2023-11-21T09:00:37;98738.56;;;8.43;100.00
52927;BME280;40783;49.710;8.842;2023-11-21T09:03:04;98745.50;;;8.36;100.00
52927;BME280;40783;49.710;8.842;2023-11-21T09:05:37;98751.50;;;8.38;100.00
52927;BME280;40783;49.710;8.842;2023-11-21T09:08:02;98744.56;;;8.27;100.00
52927;BME280;40783;49.710;8.842;2023-11-21T09:10:29;98754.78;;;8.32;100.00
52927;BME280;40783;49.710;8.842;2023-11-21T09:12:54;98762.78;;;8.32;100.00
52927;BME280;40783;49.710;8.842;2023-11-21T09:15:20;98758.38;;;8.23;100.00
52927;BME280;40783;49.710;8.842;2023-11-21T09:17:45;98763.16;;;8.19;100.00
52927;BME280;40783;49.710;8.842;2023-11-21T09:20:10;98771.75;;;8.31;100.00
52927;BME280;40783;49.710;8.842;2023-11-21T09:22:39;98762.47;;;8.35;100.00
52927;BME280;40783;49.710;8.842;2023-11-21T09:25:05;98770.09;;;8.30;100.00
52927;BME280;40783;49.710;8.842;2023-11-21T09:27:31;98777.84;;;8.41;100.00
52927;BME280;40783;49.710;8.842;2023-11-21T09:29:56;98782.31;;;8.41;100.00
52927;BME280;40783;49.710;8.842;2023-11-21T09:32:23;98786.38;;;8.27;100.00
52927;BME280;40783;49.710;8.842;2023-11-21T09:34:50;98779.88;;;8.29;100.00
52927;BME280;40783;49.710;8.842;2023-11-21T09:37:16;98790.78;;;8.36;100.00
52927;BME280;40783;49.710;8.842;2023-11-21T09:39:46;98792.00;;;8.24;100.00
52927;BME280;40783;49.710;8.842;2023-11-21T09:42:13;98795.06;;;8.29;100.00
52927;BME280;40783;49.710;8.842;2023-11-21T09:47:22;98805.19;;;8.43;100.00
52927;BME280;40783;49.710;8.842;2023-11-21T09:49:48;98802.97;;;8.39;100.00
52927;BME280;40783;49.710;8.842;2023-11-21T09:52:32;98810.22;;;8.46;100.00
52927;BME280;40783;49.710;8.842;2023-11-21T09:55:00;98813.69;;;8.47;100.00
52927;BME280;40783;49.710;8.842;2023-11-21T09:57:29;98812.88;;;8.46;100.00
52927;BME280;40783;49.710;8.842;2023-11-21T09:59:57;98811.81;;;8.39;100.00
52927;BME280;40783;49.710;8.842;2023-11-21T10:02:26;98818.75;;;8.50;100.00
52927;BME280;40783;49.710;8.842;2023-11-21T10:04:56;98817.91;;;8.50;100.00
52927;BME280;40783;49.710;8.842;2023-11-21T10:07:21;98813.31;;;8.42;100.00
52927;BME280;40783;49.710;8.842;2023-11-21T10:09:51;98818.03;;;8.30;100.00
52927;BME280;40783;49.710;8.842;2023-11-21T10:12:16;98820.03;;;8.28;100.00
52927;BME280;40783;49.710;8.842;2023-11-21T10:14:42;98822.06;;;8.34;100.00
52927;BME280;40783;49.710;8.842;2023-11-21T10:17:11;98830.75;;;8.36;100.00
52927;BME280;40783;49.710;8.842;2023-11-21T10:19:37;98827.19;;;8.45;100.00
52927;BME280;40783;49.710;8.842;2023-11-21T10:22:03;98815.91;;;8.52;100.00
52927;BME280;40783;49.710;8.842;2023-11-21T10:24:29;98821.00;;;8.45;100.00
52927;BME280;40783;49.710;8.842;2023-11-21T10:26:54;98811.28;;;8.54;100.00
52927;BME280;40783;49.710;8.842;2023-11-21T10:29:19;98822.31;;;8.59;100.00
52927;BME280;40783;49.710;8.842;2023-11-21T10:31:48;98822.94;;;8.53;100.00
52927;BME280;40783;49.710;8.842;2023-11-21T10:34:17;98831.91;;;8.52;100.00
52927;BME280;40783;49.710;8.842;2023-11-21T10:36:45;98824.91;;;8.51;100.00
52927;BME280;40783;49.710;8.842;2023-11-21T10:39:14;98829.63;;;8.57;100.00
52927;BME280;40783;49.710;8.842;2023-11-21T10:41:43;98828.41;;;8.69;100.00
52927;BME280;40783;49.710;8.842;2023-11-21T10:44:12;98835.09;;;8.73;100.00
52927;BME280;40783;49.710;8.842;2023-11-21T10:46:39;98839.81;;;8.80;100.00
52927;BME280;40783;49.710;8.842;2023-11-21T10:49:07;98844.41;;;8.69;100.00
52927;BME280;40783;49.710;8.842;2023-11-21T10:51:32;98846.63;;;8.74;100.00
52927;BME280;40783;49.710;8.842;2023-11-21T10:53:57;98851.72;;;8.67;100.00
52927;BME280;40783;49.710;8.842;2023-11-21T10:56:26;98846.38;;;8.67;100.00
52927;BME280;40783;49.710;8.842;2023-11-21T10:58:52;98851.56;;;8.51;100.00
52927;BME280;40783;49.710;8.842;2023-11-21T11:01:19;98851.25;;;8.54;100.00
52927;BME280;40783;49.710;8.842;2023-11-21T11:03:50;98852.84;;;8.46;100.00
52927;BME280;40783;49.710;8.842;2023-11-21T11:06:19;98850.44;;;8.53;100.00
52927;BME280;40783;49.710;8.842;2023-11-21T11:08:45;98850.50;;;8.61;100.00
52927;BME280;40783;49.710;8.842;2023-11-21T11:11:11;98849.28;;;8.56;100.00
52927;BME280;40783;49.710;8.842;2023-11-21T11:13:37;98848.84;;;8.60;100.00
52927;BME280;40783;49.710;8.842;2023-11-21T11:16:02;98848.97;;;8.59;100.00
52927;BME280;40783;49.710;8.842;2023-11-21T11:18:29;98839.28;;;8.58;100.00
52927;BME280;40783;49.710;8.842;2023-11-21T11:20:54;98839.69;;;8.63;100.00
52927;BME280;40783;49.710;8.842;2023-11-21T11:23:35;98834.81;;;8.58;100.00
52927;BME280;40783;49.710;8.842;2023-11-21T11:33:46;98843.63;;;8.59;100.00
52927;BME280;40783;49.710;8.842;2023-11-21T11:36:26;98841.72;;;8.69;100.00
52927;BME280;40783;49.710;8.842;2023-11-21T11:38:54;98843.72;;;8.67;100.00
52927;BME280;40783;49.710;8.842;2023-11-21T11:41:25;98846.06;;;8.70;100.00
52927;BME280;40783;49.710;8.842;2023-11-21T11:43:51;98848.75;;;8.70;100.00
52927;BME280;40783;49.710;8.842;2023-11-21T11:46:16;98847.13;;;8.78;100.00
52927;BME280;40783;49.710;8.842;2023-11-21T11:48:42;98854.44;;;8.75;100.00
52927;BME280;40783;49.710;8.842;2023-11-21T11:51:11;98850.88;;;8.85;100.00
52927;BME280;40783;49.710;8.842;2023-11-21T11:53:39;98851.25;;;8.90;100.00
52927;BME280;40783;49.710;8.842;2023-11-21T11:58:46;98851.66;;;9.03;100.00
52927;BME280;40783;49.710;8.842;2023-11-21T12:01:12;98853.00;;;9.08;100.00
52927;BME280;40783;49.710;8.842;2023-11-21T12:03:37;98854.69;;;9.09;100.00
52927;BME280;40783;49.710;8.842;2023-11-21T12:06:02;98854.31;;;9.03;100.00
52927;BME280;40783;49.710;8.842;2023-11-21T12:08:28;98859.31;;;8.98;100.00
52927;BME280;40783;49.710;8.842;2023-11-21T12:10:58;98864.97;;;9.03;100.00
52927;BME280;40783;49.710;8.842;2023-11-21T12:13:23;98862.31;;;9.03;100.00
52927;BME280;40783;49.710;8.842;2023-11-21T12:15:49;98868.41;;;9.14;100.00
52927;BME280;40783;49.710;8.842;2023-11-21T12:18:14;98867.78;;;9.20;100.00
52927;BME280;40783;49.710;8.842;2023-11-21T12:20:39;98872.13;;;9.21;100.00
52927;BME280;40783;49.710;8.842;2023-11-21T12:23:06;98866.84;;;9.29;100.00
52927;BME280;40783;49.710;8.842;2023-11-21T12:25:31;98870.13;;;9.23;100.00
52927;BME280;40783;49.710;8.842;2023-11-21T12:27:58;98873.84;;;9.30;100.00
52927;BME280;40783;49.710;8.842;2023-11-21T12:30:24;98861.88;;;9.34;100.00
52927;BME280;40783;49.710;8.842;2023-11-21T12:32:53;98867.09;;;9.18;100.00
52927;BME280;40783;49.710;8.842;2023-11-21T12:35:23;98862.44;;;9.20;100.00
52927;BME280;40783;49.710;8.842;2023-11-21T12:37:51;98854.19;;;9.31;100.00
52927;BME280;40783;49.710;8.842;2023-11-21T12:40:17;98860.19;;;9.33;100.00
52927;BME280;40783;49.710;8.842;2023-11-21T12:42:46;98871.56;;;9.35;100.00
52927;BME280;40783;49.710;8.842;2023-11-21T12:47:42;98883.28;;;9.43;100.00
52927;BME280;40783;49.710;8.842;2023-11-21T12:50:08;98891.16;;;9.26;100.00
52927;BME280;40783;49.710;8.842;2023-11-21T12:52:39;98886.50;;;9.28;100.00
52927;BME280;40783;49.710;8.842;2023-11-21T12:55:07;98885.03;;;9.34;100.00
52927;BME280;40783;49.710;8.842;2023-11-21T12:57:33;98900.53;;;9.30;100.00
52927;BME280;40783;49.710;8.842;2023-11-21T12:59:58;98893.53;;;9.29;100.00
52927;BME280;40783;49.710;8.842;2023-11-21T13:02:29;98902.84;;;9.25;100.00
52927;BME280;40783;49.710;8.842;2023-11-21T13:04:56;98901.47;;;9.21;100.00
52927;BME280;40783;49.710;8.842;2023-11-21T13:07:31;98902.53;;;9.28;100.00
52927;BME280;40783;49.710;8.842;2023-11-21T13:10:11;98903.50;;;9.27;100.00
52927;BME280;40783;49.710;8.842;2023-11-21T13:12:37;98903.69;;;9.26;100.00